sensor_id;sensor_type;location;lat;lon;timestamp;pressure;altitude;pressure_sealevel;temperature;humidity
7050;BME280;22263;52.260;10.548;2023-05-10T00:02:15;99668.19;;;15.11;100.00
7050;BME280;22263;52.260;10.548;2023-05-10T00:04:45;99662.41;;;15.02;100.00
7050;BME280;22263;52.260;10.548;2023-05-10T00:07:15;99649.69;;;15.01;100.00
7050;BME280;22263;52.260;10.548;2023-05-10T00:09:46;99653.72;;;15.00;100.00
7050;BME280;22263;52.260;10.548;2023-05-10T00:12:16;99648.47;;;15.02;100.00
7050;BME280;22263;52.260;10.548;2023-05-10T00:14:47;99638.34;;;14.92;100.00
7050;BME280;22263;52.260;10.548;2023-05-10T00:17:21;99639.00;;;15.00;100.00
7050;BME280;22263;52.260;10.548;2023-05-10T00:19:51;99634.00;;;14.91;100.00
7050;BME280;22263;52.260;10.548;2023-05-10T00:22:23;99627.88;;;14.80;100.00
7050;BME280;22263;52.260;10.548;2023-05-10T00:24:53;99632.94;;;14.85;100.00
7050;BME280;22263;52.260;10.548;2023-05-10T00:27:23;99630.84;;;14.89;100.00
7050;BME280;22263;52.260;10.548;2023-05-10T00:29:55;99623.41;;;14.82;100.00
7050;BME280;22263;52.260;10.548;2023-05-10T00:32:31;99614.94;;;14.70;100.00
7050;BME280;22263;52.260;10.548;2023-05-10T00:35:04;99620.13;;;14.88;100.00
7050;BME280;22263;52.260;10.548;2023-05-10T00:37:35;99619.94;;;14.78;100.00
7050;BME280;22263;52.260;10.548;2023-05-10T00:40:07;99614.53;;;14.71;100.00
7050;BME280;22263;52.260;10.548;2023-05-10T00:42:37;99613.56;;;14.78;100.00
7050;BME280;22263;52.260;10.548;2023-05-10T00:45:09;99625.16;;;14.76;100.00
7050;BME280;22263;52.260;10.548;2023-05-10T00:47:42;99630.56;;;14.83;100.00
7050;BME280;22263;52.260;10.548;2023-05-10T00:50:14;99628.28;;;14.78;100.00
7050;BME280;22263;52.260;10.548;2023-05-10T00:52:45;99636.63;;;14.78;100.00
7050;BME280;22263;52.260;10.548;2023-05-10T00:55:15;99621.38;;;14.67;100.00
7050;BME280;22263;52.260;10.548;2023-05-10T00:57:45;99610.56;;;14.69;100.00
7050;BME280;22263;52.260;10.548;2023-05-10T01:00:17;99611.78;;;14.68;100.00
7050;BME280;22263;52.260;10.548;2023-05-10T01:02:53;99628.56;;;14.64;100.00
7050;BME280;22263;52.260;10.548;2023-05-10T01:05:24;99621.00;;;14.65;100.00
7050;BME280;22263;52.260;10.548;2023-05-10T01:07:56;99614.31;;;14.62;100.00
7050;BME280;22263;52.260;10.548;2023-05-10T01:10:29;99626.72;;;14.58;100.00
7050;BME280;22263;52.260;10.548;2023-05-10T01:13:03;99618.06;;;14.52;100.00
7050;BME280;22263;52.260;10.548;2023-05-10T01:15:33;99619.63;;;14.53;100.00
7050;BME280;22263;52.260;10.548;2023-05-10T01:18:08;99616.69;;;14.40;100.00
7050;BME280;22263;52.260;10.548;2023-05-10T01:20:43;99610.81;;;14.35;100.00
7050;BME280;22263;52.260;10.548;2023-05-10T01:23:37;99614.38;;;14.35;100.00
7050;BME280;22263;52.260;10.548;2023-05-10T01:26:32;99626.06;;;14.27;100.00
7050;BME280;22263;52.260;10.548;2023-05-10T01:29:21;99611.03;;;14.24;100.00
7050;BME280;22263;52.260;10.548;2023-05-10T01:32:26;99628.06;;;14.26;100.00
7050;BME280;22263;52.260;10.548;2023-05-10T01:35:00;99624.97;;;14.21;100.00
7050;BME280;22263;52.260;10.548;2023-05-10T01:37:38;99627.56;;;14.31;100.00
7050;BME280;22263;52.260;10.548;2023-05-10T01:40:19;99628.34;;;14.32;100.00
7050;BME280;22263;52.260;10.548;2023-05-10T01:42:58;99624.63;;;14.19;100.00
7050;BME280;22263;52.260;10.548;2023-05-10T01:45:33;99628.19;;;14.19;100.00
7050;BME280;22263;52.260;10.548;2023-05-10T01:48:10;99634.41;;;14.27;100.00
7050;BME280;22263;52.260;10.548;2023-05-10T01:50:43;99619.72;;;14.03;100.00
7050;BME280;22263;52.260;10.548;2023-05-10T01:53:18;99621.16;;;14.11;100.00
7050;BME280;22263;52.260;10.548;2023-05-10T01:55:52;99604.63;;;14.04;100.00
7050;BME280;22263;52.260;10.548;2023-05-10T01:58:27;99614.88;;;14.07;100.00
7050;BME280;22263;52.260;10.548;2023-05-10T02:01:00;99624.13;;;14.01;100.00
7050;BME280;22263;52.260;10.548;2023-05-10T02:03:35;99612.75;;;13.91;100.00
7050;BME280;22263;52.260;10.548;2023-05-10T02:06:07;99622.59;;;13.96;100.00
7050;BME280;22263;52.260;10.548;2023-05-10T02:08:40;99617.50;;;13.94;100.00
7050;BME280;22263;52.260;10.548;2023-05-10T02:11:13;99615.44;;;13.98;100.00
7050;BME280;22263;52.260;10.548;2023-05-10T02:13:49;99617.91;;;13.93;100.00
7050;BME280;22263;52.260;10.548;2023-05-10T02:16:35;99622.13;;;14.01;100.00
7050;BME280;22263;52.260;10.548;2023-05-10T02:19:13;99622.50;;;13.80;100.00
7050;BME280;22263;52.260;10.548;2023-05-10T02:21:48;99602.34;;;13.72;100.00
7050;BME280;22263;52.260;10.548;2023-05-10T02:24:34;99617.16;;;13.66;100.00
7050;BME280;22263;52.260;10.548;2023-05-10T02:27:14;99622.03;;;13.85;100.00
7050;BME280;22263;52.260;10.548;2023-05-10T02:30:00;99618.94;;;13.79;100.00
7050;BME280;22263;52.260;10.548;2023-05-10T02:32:49;99616.69;;;13.71;100.00
7050;BME280;22263;52.260;10.548;2023-05-10T02:35:26;99619.00;;;13.76;100.00
7050;BME280;22263;52.260;10.548;2023-05-10T02:38:14;99611.00;;;13.78;100.00
7050;BME280;22263;52.260;10.548;2023-05-10T02:40:51;99609.91;;;13.72;100.00
7050;BME280;22263;52.260;10.548;2023-05-10T02:43:26;99608.81;;;13.66;100.00
7050;BME280;22263;52.260;10.548;2023-05-10T02:46:06;99607.56;;;13.70;100.00
7050;BME280;22263;52.260;10.548;2023-05-10T02:48:41;99604.47;;;13.65;100.00
7050;BME280;22263;52.260;10.548;2023-05-10T02:51:16;99614.84;;;13.61;100.00
7050;BME280;22263;52.260;10.548;2023-05-10T02:54:11;99613.91;;;13.71;100.00
7050;BME280;22263;52.260;10.548;2023-05-10T02:56:53;99612.28;;;13.73;100.00
7050;BME280;22263;52.260;10.548;2023-05-10T02:59:33;99616.69;;;13.71;100.00
7050;BME280;22263;52.260;10.548;2023-05-10T03:02:21;99598.06;;;13.68;100.00
7050;BME280;22263;52.260;10.548;2023-05-10T03:05:06;99612.63;;;13.52;100.00
7050;BME280;22263;52.260;10.548;2023-05-10T03:07:56;99608.66;;;13.49;100.00
7050;BME280;22263;52.260;10.548;2023-05-10T03:10:51;99609.06;;;13.51;100.00
7050;BME280;22263;52.260;10.548;2023-05-10T03:14:10;99614.53;;;13.55;100.00
7050;BME280;22263;52.260;10.548;2023-05-10T03:17:15;99609.56;;;13.43;100.00
7050;BME280;22263;52.260;10.548;2023-05-10T03:20:17;99621.03;;;13.45;100.00
7050;BME280;22263;52.260;10.548;2023-05-10T03:23:10;99611.59;;;13.39;100.00
7050;BME280;22263;52.260;10.548;2023-05-10T03:25:47;99614.06;;;13.33;100.00
7050;BME280;22263;52.260;10.548;2023-05-10T03:28:20;99614.50;;;13.32;100.00
7050;BME280;22263;52.260;10.548;2023-05-10T03:30:52;99609.72;;;13.32;100.00
7050;BME280;22263;52.260;10.548;2023-05-10T03:33:25;99608.47;;;13.37;100.00
7050;BME280;22263;52.260;10.548;2023-05-10T03:35:57;99625.53;;;13.35;100.00
7050;BME280;22263;52.260;10.548;2023-05-10T03:38:34;99614.06;;;13.33;100.00
7050;BME280;22263;52.260;10.548;2023-05-10T03:41:05;99614.59;;;13.25;100.00
7050;BME280;22263;52.260;10.548;2023-05-10T03:43:36;99603.91;;;13.23;100.00
7050;BME280;22263;52.260;10.548;2023-05-10T03:46:08;99610.28;;;13.20;100.00
7050;BME280;22263;52.260;10.548;2023-05-10T03:48:38;99608.69;;;13.19;100.00
7050;BME280;22263;52.260;10.548;2023-05-10T03:51:10;99608.25;;;13.24;100.00
7050;BME280;22263;52.260;10.548;2023-05-10T03:53:48;99609.47;;;13.23;100.00
7050;BME280;22263;52.260;10.548;2023-05-10T03:56:20;99621.31;;;13.27;100.00
7050;BME280;22263;52.260;10.548;2023-05-10T03:58:51;99617.16;;;13.12;100.00
7050;BME280;22263;52.260;10.548;2023-05-10T04:01:21;99604.47;;;13.11;100.00
7050;BME280;22263;52.260;10.548;2023-05-10T04:03:51;99609.59;;;13.13;100.00
7050;BME280;22263;52.260;10.548;2023-05-10T04:06:21;99604.38;;;13.18;100.00
7050;BME280;22263;52.260;10.548;2023-05-10T04:08:57;99602.50;;;13.08;100.00
7050;BME280;22263;52.260;10.548;2023-05-10T04:11:31;99603.59;;;13.18;100.00
7050;BME280;22263;52.260;10.548;2023-05-10T04:14:00;99605.28;;;13.08;100.00
7050;BME280;22263;52.260;10.548;2023-05-10T04:16:30;99610.84;;;13.04;100.00
7050;BME280;22263;52.260;10.548;2023-05-10T04:19:02;99591.75;;;13.10;100.00
7050;BME280;22263;52.260;10.548;2023-05-10T04:21:33;99602.91;;;13.06;100.00
7050;BME280;22263;52.260;10.548;2023-05-10T04:24:05;99593.06;;;13.02;100.00
7050;BME280;22263;52.260;10.548;2023-05-10T04:26:39;99594.63;;;13.03;100.00
7050;BME280;22263;52.260;10.548;2023-05-10T04:29:10;99612.50;;;13.02;100.00
7050;BME280;22263;52.260;10.548;2023-05-10T04:31:41;99601.78;;;13.04;100.00
7050;BME280;22263;52.260;10.548;2023-05-10T04:34:13;99606.88;;;13.05;100.00
7050;BME280;22263;52.260;10.548;2023-05-10T04:36:43;99613.59;;;13.08;100.00
7050;BME280;22263;52.260;10.548;2023-05-10T04:39:16;99605.69;;;13.06;100.00
7050;BME280;22263;52.260;10.548;2023-05-10T04:41:46;99604.84;;;13.09;100.00
7050;BME280;22263;52.260;10.548;2023-05-10T04:44:16;99608.88;;;13.05;100.00
7050;BME280;22263;52.260;10.548;2023-05-10T04:46:46;99610.97;;;12.97;100.00
7050;BME280;22263;52.260;10.548;2023-05-10T04:49:18;99611.69;;;13.01;100.00
7050;BME280;22263;52.260;10.548;2023-05-10T04:51:50;99616.06;;;13.02;100.00
7050;BME280;22263;52.260;10.548;2023-05-10T04:54:23;99622.44;;;12.99;100.00
7050;BME280;22263;52.260;10.548;2023-05-10T04:56:57;99617.88;;;12.82;100.00
7050;BME280;22263;52.260;10.548;2023-05-10T04:59:27;99622.91;;;12.94;100.00
7050;BME280;22263;52.260;10.548;2023-05-10T05:01:57;99635.56;;;12.95;100.00
7050;BME280;22263;52.260;10.548;2023-05-10T05:04:29;99618.16;;;12.95;100.00
7050;BME280;22263;52.260;10.548;2023-05-10T05:07:00;99631.91;;;13.02;100.00
7050;BME280;22263;52.260;10.548;2023-05-10T05:09:34;99634.53;;;13.16;100.00
7050;BME280;22263;52.260;10.548;2023-05-10T05:12:06;99635.47;;;13.02;100.00
7050;BME280;22263;52.260;10.548;2023-05-10T05:14:41;99649.31;;;13.06;100.00
7050;BME280;22263;52.260;10.548;2023-05-10T05:17:12;99647.44;;;12.96;100.00
7050;BME280;22263;52.260;10.548;2023-05-10T05:19:42;99644.22;;;13.01;100.00
7050;BME280;22263;52.260;10.548;2023-05-10T05:22:12;99644.94;;;13.05;100.00
7050;BME280;22263;52.260;10.548;2023-05-10T05:24:48;99642.56;;;13.07;100.00
7050;BME280;22263;52.260;10.548;2023-05-10T05:27:18;99645.34;;;13.07;100.00
7050;BME280;22263;52.260;10.548;2023-05-10T05:29:52;99646.91;;;13.08;100.00
7050;BME280;22263;52.260;10.548;2023-05-10T05:32:22;99653.66;;;13.07;100.00
7050;BME280;22263;52.260;10.548;2023-05-10T05:35:00;99642.00;;;12.89;100.00
7050;BME280;22263;52.260;10.548;2023-05-10T05:37:30;99660.50;;;12.99;100.00
7050;BME280;22263;52.260;10.548;2023-05-10T05:40:06;99652.72;;;12.87;100.00
7050;BME280;22263;52.260;10.548;2023-05-10T05:42:36;99660.97;;;12.94;100.00
7050;BME280;22263;52.260;10.548;2023-05-10T05:45:07;99669.28;;;12.94;100.00
7050;BME280;22263;52.260;10.548;2023-05-10T05:47:42;99668.50;;;12.93;100.00
7050;BME280;22263;52.260;10.548;2023-05-10T05:50:14;99655.03;;;12.92;100.00
7050;BME280;22263;52.260;10.548;2023-05-10T05:52:44;99664.75;;;13.07;100.00
7050;BME280;22263;52.260;10.548;2023-05-10T05:55:17;99671.03;;;13.15;100.00
7050;BME280;22263;52.260;10.548;2023-05-10T05:57:47;99674.94;;;13.21;100.00
7050;BME280;22263;52.260;10.548;2023-05-10T06:00:17;99672.66;;;13.12;100.00
7050;BME280;22263;52.260;10.548;2023-05-10T06:02:48;99670.31;;;13.07;100.00
7050;BME280;22263;52.260;10.548;2023-05-10T06:05:20;99672.63;;;13.16;100.00
7050;BME280;22263;52.260;10.548;2023-05-10T06:07:51;99672.44;;;13.30;100.00
7050;BME280;22263;52.260;10.548;2023-05-10T06:10:24;99672.88;;;13.28;100.00
7050;BME280;22263;52.260;10.548;2023-05-10T06:12:54;99671.63;;;13.29;100.00
7050;BME280;22263;52.260;10.548;2023-05-10T06:15:26;99674.06;;;13.27;100.00
7050;BME280;22263;52.260;10.548;2023-05-10T06:17:56;99677.16;;;13.33;100.00
7050;BME280;22263;52.260;10.548;2023-05-10T06:20:28;99675.44;;;13.42;100.00
7050;BME280;22263;52.260;10.548;2023-05-10T06:22:58;99674.66;;;13.69;100.00
7050;BME280;22263;52.260;10.548;2023-05-10T06:25:31;99671.56;;;13.90;100.00
7050;BME280;22263;52.260;10.548;2023-05-10T06:28:01;99677.63;;;14.08;100.00
7050;BME280;22263;52.260;10.548;2023-05-10T06:30:31;99680.09;;;14.03;100.00
7050;BME280;22263;52.260;10.548;2023-05-10T06:33:01;99679.06;;;14.16;100.00
7050;BME280;22263;52.260;10.548;2023-05-10T06:35:32;99679.56;;;14.11;100.00
7050;BME280;22263;52.260;10.548;2023-05-10T06:38:02;99690.69;;;14.11;100.00
7050;BME280;22263;52.260;10.548;2023-05-10T06:40:35;99686.38;;;14.07;100.00
7050;BME280;22263;52.260;10.548;2023-05-10T06:43:06;99675.06;;;13.94;100.00
7050;BME280;22263;52.260;10.548;2023-05-10T06:45:36;99706.16;;;14.12;100.00
7050;BME280;22263;52.260;10.548;2023-05-10T06:48:06;99709.94;;;13.98;100.00
7050;BME280;22263;52.260;10.548;2023-05-10T06:50:36;99716.94;;;13.83;100.00
7050;BME280;22263;52.260;10.548;2023-05-10T06:53:06;99718.97;;;13.79;100.00
7050;BME280;22263;52.260;10.548;2023-05-10T06:55:39;99737.19;;;13.53;100.00
7050;BME280;22263;52.260;10.548;2023-05-10T06:58:09;99738.53;;;13.08;100.00
7050;BME280;22263;52.260;10.548;2023-05-10T07:00:41;99747.50;;;12.82;100.00
7050;BME280;22263;52.260;10.548;2023-05-10T07:03:12;99744.13;;;12.63;100.00
7050;BME280;22263;52.260;10.548;2023-05-10T07:05:43;99739.56;;;12.43;100.00
7050;BME280;22263;52.260;10.548;2023-05-10T07:08:15;99743.97;;;12.37;100.00
7050;BME280;22263;52.260;10.548;2023-05-10T07:10:49;99730.84;;;12.44;100.00
7050;BME280;22263;52.260;10.548;2023-05-10T07:13:21;99746.16;;;12.59;100.00
7050;BME280;22263;52.260;10.548;2023-05-10T07:15:52;99752.75;;;12.73;100.00
7050;BME280;22263;52.260;10.548;2023-05-10T07:18:22;99752.69;;;12.80;100.00
7050;BME280;22263;52.260;10.548;2023-05-10T07:20:52;99768.97;;;12.78;100.00
7050;BME280;22263;52.260;10.548;2023-05-10T07:23:25;99770.84;;;12.88;100.00
7050;BME280;22263;52.260;10.548;2023-05-10T07:25:59;99774.06;;;12.83;100.00
7050;BME280;22263;52.260;10.548;2023-05-10T07:28:33;99779.34;;;12.70;100.00
7050;BME280;22263;52.260;10.548;2023-05-10T07:31:04;99784.28;;;12.48;100.00
7050;BME280;22263;52.260;10.548;2023-05-10T07:33:34;99778.41;;;12.39;100.00
7050;BME280;22263;52.260;10.548;2023-05-10T07:36:10;99791.03;;;12.44;100.00
7050;BME280;22263;52.260;10.548;2023-05-10T07:38:43;99780.84;;;12.30;100.00
7050;BME280;22263;52.260;10.548;2023-05-10T07:41:15;99792.63;;;12.45;100.00
7050;BME280;22263;52.260;10.548;2023-05-10T07:43:46;99796.44;;;12.61;100.00
7050;BME280;22263;52.260;10.548;2023-05-10T07:46:19;99801.53;;;12.70;100.00
7050;BME280;22263;52.260;10.548;2023-05-10T07:48:50;99805.09;;;12.71;100.00
7050;BME280;22263;52.260;10.548;2023-05-10T07:51:22;99810.66;;;12.67;100.00
7050;BME280;22263;52.260;10.548;2023-05-10T07:53:54;99798.78;;;12.66;100.00
7050;BME280;22263;52.260;10.548;2023-05-10T07:56:28;99802.66;;;12.80;100.00
7050;BME280;22263;52.260;10.548;2023-05-10T07:58:59;99811.19;;;12.96;100.00
7050;BME280;22263;52.260;10.548;2023-05-10T08:01:32;99801.31;;;12.95;100.00
7050;BME280;22263;52.260;10.548;2023-05-10T08:04:03;99801.31;;;12.95;100.00
7050;BME280;22263;52.260;10.548;2023-05-10T08:06:33;99798.84;;;13.00;100.00
7050;BME280;22263;52.260;10.548;2023-05-10T08:09:04;99805.09;;;13.15;100.00
7050;BME280;22263;52.260;10.548;2023-05-10T08:11:37;99817.03;;;13.12;100.00
7050;BME280;22263;52.260;10.548;2023-05-10T08:14:07;99811.94;;;13.00;100.00
7050;BME280;22263;52.260;10.548;2023-05-10T08:16:37;99821.00;;;13.11;100.00
7050;BME280;22263;52.260;10.548;2023-05-10T08:19:08;99823.38;;;13.09;100.00
7050;BME280;22263;52.260;10.548;2023-05-10T08:21:38;99841.94;;;13.19;100.00
7050;BME280;22263;52.260;10.548;2023-05-10T08:24:11;99840.28;;;13.25;100.00
7050;BME280;22263;52.260;10.548;2023-05-10T08:26:44;99856.84;;;13.36;100.00
7050;BME280;22263;52.260;10.548;2023-05-10T08:29:14;99856.47;;;13.34;100.00
7050;BME280;22263;52.260;10.548;2023-05-10T08:31:48;99865.22;;;13.32;100.00
7050;BME280;22263;52.260;10.548;2023-05-10T08:34:18;99869.59;;;13.30;100.00
7050;BME280;22263;52.260;10.548;2023-05-10T08:36:50;99868.00;;;13.32;100.00
7050;BME280;22263;52.260;10.548;2023-05-10T08:39:21;99872.75;;;13.32;100.00
7050;BME280;22263;52.260;10.548;2023-05-10T08:42:02;99871.47;;;13.40;100.00
7050;BME280;22263;52.260;10.548;2023-05-10T08:44:34;99884.91;;;13.45;100.00
7050;BME280;22263;52.260;10.548;2023-05-10T08:47:10;99884.09;;;13.48;100.00
7050;BME280;22263;52.260;10.548;2023-05-10T08:49:44;99873.59;;;13.63;100.00
7050;BME280;22263;52.260;10.548;2023-05-10T08:52:18;99890.88;;;13.81;100.00
7050;BME280;22263;52.260;10.548;2023-05-10T08:54:50;99875.53;;;13.69;100.00
7050;BME280;22263;52.260;10.548;2023-05-10T08:57:24;99885.31;;;13.81;100.00
7050;BME280;22263;52.260;10.548;2023-05-10T08:59:54;99895.50;;;13.91;100.00
7050;BME280;22263;52.260;10.548;2023-05-10T09:02:25;99896.84;;;13.79;100.00
7050;BME280;22263;52.260;10.548;2023-05-10T09:04:55;99897.47;;;13.60;100.00
7050;BME280;22263;52.260;10.548;2023-05-10T09:07:27;99898.25;;;13.61;100.00
7050;BME280;22263;52.260;10.548;2023-05-10T09:10:01;99901.47;;;13.56;100.00
7050;BME280;22263;52.260;10.548;2023-05-10T09:12:38;99912.53;;;13.59;100.00
7050;BME280;22263;52.260;10.548;2023-05-10T09:15:11;99905.41;;;13.58;100.00
7050;BME280;22263;52.260;10.548;2023-05-10T09:17:47;99918.78;;;13.70;100.00
7050;BME280;22263;52.260;10.548;2023-05-10T09:20:25;99918.75;;;13.74;100.00
7050;BME280;22263;52.260;10.548;2023-05-10T09:22:57;99918.34;;;13.72;100.00
7050;BME280;22263;52.260;10.548;2023-05-10T09:25:28;99931.97;;;13.96;100.00
7050;BME280;22263;52.260;10.548;2023-05-10T09:28:06;99933.44;;;14.08;100.00
7050;BME280;22263;52.260;10.548;2023-05-10T09:30:36;99935.75;;;14.13;100.00
7050;BME280;22263;52.260;10.548;2023-05-10T09:33:07;99936.56;;;14.10;100.00
7050;BME280;22263;52.260;10.548;2023-05-10T09:35:37;99944.91;;;14.10;100.00
7050;BME280;22263;52.260;10.548;2023-05-10T09:38:10;99928.72;;;14.05;100.00
7050;BME280;22263;52.260;10.548;2023-05-10T09:40:51;99942.53;;;14.12;100.00
7050;BME280;22263;52.260;10.548;2023-05-10T09:43:26;99952.44;;;14.13;100.00
7050;BME280;22263;52.260;10.548;2023-05-10T09:45:59;99953.22;;;14.14;100.00
7050;BME280;22263;52.260;10.548;2023-05-10T09:48:29;99940.53;;;14.13;100.00
7050;BME280;22263;52.260;10.548;2023-05-10T09:51:00;99953.22;;;14.14;100.00
7050;BME280;22263;52.260;10.548;2023-05-10T09:53:31;99956.34;;;14.19;100.00
7050;BME280;22263;52.260;10.548;2023-05-10T09:56:01;99959.44;;;14.25;100.00
7050;BME280;22263;52.260;10.548;2023-05-10T09:58:36;99956.28;;;14.23;100.00
7050;BME280;22263;52.260;10.548;2023-05-10T10:01:10;99960.28;;;14.22;100.00
7050;BME280;22263;52.260;10.548;2023-05-10T10:03:42;99979.94;;;14.42;100.00
7050;BME280;22263;52.260;10.548;2023-05-10T10:06:18;99968.06;;;14.37;100.00
7050;BME280;22263;52.260;10.548;2023-05-10T10:08:56;99976.16;;;14.55;100.00
7050;BME280;22263;52.260;10.548;2023-05-10T10:11:27;99971.00;;;14.54;100.00
7050;BME280;22263;52.260;10.548;2023-05-10T10:14:03;99963.00;;;14.59;100.00
7050;BME280;22263;52.260;10.548;2023-05-10T10:16:38;99983.00;;;14.77;100.00
7050;BME280;22263;52.260;10.548;2023-05-10T10:19:30;99980.22;;;14.77;100.00
7050;BME280;22263;52.260;10.548;2023-05-10T10:22:05;99958.63;;;14.58;100.00
7050;BME280;22263;52.260;10.548;2023-05-10T10:24:38;99967.63;;;14.39;100.00
7050;BME280;22263;52.260;10.548;2023-05-10T10:27:21;99975.09;;;14.46;100.00
7050;BME280;22263;52.260;10.548;2023-05-10T10:30:06;99978.16;;;14.55;100.00
7050;BME280;22263;52.260;10.548;2023-05-10T10:33:10;99971.84;;;14.51;100.00
7050;BME280;22263;52.260;10.548;2023-05-10T10:35:55;99987.31;;;14.55;100.00
7050;BME280;22263;52.260;10.548;2023-05-10T10:38:36;99970.72;;;14.48;100.00
7050;BME280;22263;52.260;10.548;2023-05-10T10:41:11;99978.53;;;14.57;100.00
7050;BME280;22263;52.260;10.548;2023-05-10T10:44:24;99979.53;;;14.70;100.00
7050;BME280;22263;52.260;10.548;2023-05-10T10:47:10;99984.19;;;14.80;100.00
7050;BME280;22263;52.260;10.548;2023-05-10T10:50:04;99978.41;;;14.94;100.00
7050;BME280;22263;52.260;10.548;2023-05-10T10:52:37;99978.44;;;15.17;100.00
7050;BME280;22263;52.260;10.548;2023-05-10T10:55:14;99985.78;;;15.31;100.00
7050;BME280;22263;52.260;10.548;2023-05-10T10:57:48;99980.75;;;15.46;100.00
7050;BME280;22263;52.260;10.548;2023-05-10T11:00:20;99973.84;;;15.31;100.00
7050;BME280;22263;52.260;10.548;2023-05-10T11:02:58;99965.69;;;15.20;100.00
7050;BME280;22263;52.260;10.548;2023-05-10T11:05:38;99969.22;;;15.20;100.00
7050;BME280;22263;52.260;10.548;2023-05-10T11:08:16;99977.22;;;15.18;100.00
7050;BME280;22263;52.260;10.548;2023-05-10T11:10:50;99983.66;;;15.15;100.00
7050;BME280;22263;52.260;10.548;2023-05-10T11:13:33;99996.97;;;15.27;100.00
7050;BME280;22263;52.260;10.548;2023-05-10T11:16:14;99978.81;;;15.19;100.00
7050;BME280;22263;52.260;10.548;2023-05-10T11:18:57;99996.09;;;15.34;100.00
7050;BME280;22263;52.260;10.548;2023-05-10T11:21:29;99993.00;;;15.28;100.00
7050;BME280;22263;52.260;10.548;2023-05-10T11:24:01;99998.44;;;15.36;100.00
7050;BME280;22263;52.260;10.548;2023-05-10T11:26:34;99990.97;;;15.56;100.00
7050;BME280;22263;52.260;10.548;2023-05-10T11:29:06;99999.31;;;15.56;100.00
7050;BME280;22263;52.260;10.548;2023-05-10T11:31:42;99981.09;;;15.51;100.00
7050;BME280;22263;52.260;10.548;2023-05-10T11:34:23;99987.06;;;15.73;100.00
7050;BME280;22263;52.260;10.548;2023-05-10T11:36:54;99995.16;;;16.10;100.00
7050;BME280;22263;52.260;10.548;2023-05-10T11:39:28;99989.47;;;15.94;100.00
7050;BME280;22263;52.260;10.548;2023-05-10T11:41:58;99980.75;;;16.12;100.00
7050;BME280;22263;52.260;10.548;2023-05-10T11:44:30;99989.06;;;16.16;100.00
7050;BME280;22263;52.260;10.548;2023-05-10T11:47:03;99990.41;;;16.27;100.00
7050;BME280;22263;52.260;10.548;2023-05-10T11:49:39;99981.19;;;16.10;100.00
7050;BME280;22263;52.260;10.548;2023-05-10T11:52:09;99990.69;;;16.13;100.00
7050;BME280;22263;52.260;10.548;2023-05-10T11:54:45;99995.59;;;15.86;100.00
7050;BME280;22263;52.260;10.548;2023-05-10T11:57:18;100014.19;;;15.92;100.00
7050;BME280;22263;52.260;10.548;2023-05-10T11:59:54;100008.78;;;16.05;100.00
7050;BME280;22263;52.260;10.548;2023-05-10T12:02:26;100007.03;;;16.14;100.00
7050;BME280;22263;52.260;10.548;2023-05-10T12:04:59;99992.84;;;16.05;100.00
7050;BME280;22263;52.260;10.548;2023-05-10T12:07:32;100008.72;;;16.08;100.00
7050;BME280;22263;52.260;10.548;2023-05-10T12:10:06;99999.66;;;16.44;100.00
7050;BME280;22263;52.260;10.548;2023-05-10T12:12:38;100000.69;;;16.50;100.00
7050;BME280;22263;52.260;10.548;2023-05-10T12:15:13;100007.47;;;16.88;100.00
7050;BME280;22263;52.260;10.548;2023-05-10T12:17:48;99996.09;;;17.31;100.00
7050;BME280;22263;52.260;10.548;2023-05-10T12:20:27;99989.34;;;17.13;100.00
7050;BME280;22263;52.260;10.548;2023-05-10T12:23:01;99989.63;;;17.51;100.00
7050;BME280;22263;52.260;10.548;2023-05-10T12:25:33;99990.75;;;17.85;100.00
7050;BME280;22263;52.260;10.548;2023-05-10T12:28:05;99980.59;;;17.92;100.00
7050;BME280;22263;52.260;10.548;2023-05-10T12:30:36;99980.59;;;18.20;100.00
7050;BME280;22263;52.260;10.548;2023-05-10T12:33:12;99989.56;;;18.28;100.00
7050;BME280;22263;52.260;10.548;2023-05-10T12:35:49;99996.03;;;18.12;100.00
7050;BME280;22263;52.260;10.548;2023-05-10T12:38:29;99995.47;;;17.89;100.00
7050;BME280;22263;52.260;10.548;2023-05-10T12:41:04;99982.03;;;17.83;100.00
7050;BME280;22263;52.260;10.548;2023-05-10T12:43:35;99986.81;;;17.83;100.00
7050;BME280;22263;52.260;10.548;2023-05-10T12:46:07;99982.94;;;17.64;100.00
7050;BME280;22263;52.260;10.548;2023-05-10T12:48:41;99988.69;;;18.31;100.00
7050;BME280;22263;52.260;10.548;2023-05-10T12:51:16;99993.31;;;18.79;100.00
7050;BME280;22263;52.260;10.548;2023-05-10T12:53:51;99992.56;;;18.50;100.00
7050;BME280;22263;52.260;10.548;2023-05-10T12:56:24;99987.09;;;18.59;100.00
7050;BME280;22263;52.260;10.548;2023-05-10T12:58:57;99996.75;;;18.42;100.00
7050;BME280;22263;52.260;10.548;2023-05-10T13:01:32;99989.22;;;18.55;100.00
7050;BME280;22263;52.260;10.548;2023-05-10T13:04:09;99980.06;;;18.67;100.00
7050;BME280;22263;52.260;10.548;2023-05-10T13:06:45;99991.50;;;19.10;100.00
7050;BME280;22263;52.260;10.548;2023-05-10T13:09:19;99999.91;;;19.36;100.00
7050;BME280;22263;52.260;10.548;2023-05-10T13:11:50;99998.91;;;19.42;100.00
7050;BME280;22263;52.260;10.548;2023-05-10T13:14:23;99990.72;;;19.35;100.00
7050;BME280;22263;52.260;10.548;2023-05-10T13:16:55;100003.94;;;19.60;100.00
7050;BME280;22263;52.260;10.548;2023-05-10T13:19:28;99990.63;;;19.51;100.00
7050;BME280;22263;52.260;10.548;2023-05-10T13:22:03;99997.53;;;19.59;100.00
7050;BME280;22263;52.260;10.548;2023-05-10T13:24:35;99990.63;;;18.88;100.00
7050;BME280;22263;52.260;10.548;2023-05-10T13:27:07;99992.03;;;19.43;100.00
7050;BME280;22263;52.260;10.548;2023-05-10T13:29:37;99997.50;;;20.07;100.00